Time;durP1;ratioP1;P1;durP2;ratioP2;P2;SDS_P1;SDS_P2;PMS_P1;PMS_P2;Temp;Humidity;BMP_temperature;BMP_pressure;BME280_temperature;BME280_humidity;BME280_pressure;Samples;Min_cycle;Max_cycle;Signal;HPM_P1;HPM_P2
2022/10/18 00:00:03;;;;;;;5.70;2.93;;;;;;;10.45;66.02;101258.72;330523;29;1302;-72
2022/10/18 00:00:13;;;;;;;6.35;3.40;;;;;;;10.46;66.03;101255.22;327921;30;1403;-72
2022/10/18 00:00:24;;;;;;;10.37;4.87;;;;;;;10.45;65.88;101253.47;327751;30;1858;-72
2022/10/18 00:00:34;;;;;;;9.85;4.45;;;;;;;10.45;66.01;101267.44;325492;30;1491;-72
2022/10/18 00:00:44;;;;;;;10.03;4.60;;;;;;;10.44;66.10;101262.22;327902;30;1344;-72
2022/10/18 00:00:55;;;;;;;4.90;2.72;;;;;;;10.43;66.31;101257.88;327245;30;1957;-72
2022/10/18 00:01:06;;;;;;;4.70;2.57;;;;;;;10.44;66.12;101262.22;324616;30;2248;-72
2022/10/18 00:01:16;;;;;;;4.25;2.33;;;;;;;10.40;66.61;101260.56;323332;30;880;-72
2022/10/18 00:01:26;;;;;;;4.47;2.43;;;;;;;10.37;66.43;101256.22;322544;30;2771;-73
2022/10/18 00:01:37;;;;;;;4.72;3.05;;;;;;;10.38;66.45;101262.31;320319;30;3355;-72
2022/10/18 00:01:47;;;;;;;4.73;3.20;;;;;;;10.37;66.33;101253.59;316869;30;4076;-72
2022/10/18 00:01:58;;;;;;;4.70;3.28;;;;;;;10.37;66.36;101257.97;318598;31;998;-72
2022/10/18 00:02:08;;;;;;;4.30;2.70;;;;;;;10.33;66.72;101260.63;318208;30;3579;-72
2022/10/18 00:02:18;;;;;;;4.00;2.20;;;;;;;10.33;66.55;101259.78;318645;30;3426;-72
2022/10/18 00:02:29;;;;;;;4.93;3.03;;;;;;;10.33;66.50;101255.41;320842;30;1395;-72
2022/10/18 00:02:39;;;;;;;5.55;3.45;;;;;;;10.34;66.53;101261.50;317673;30;2439;-72
2022/10/18 00:02:50;;;;;;;5.70;3.63;;;;;;;10.35;66.40;101259.75;316158;31;2040;-72
2022/10/18 00:03:00;;;;;;;5.15;2.78;;;;;;;10.36;66.24;101256.25;312859;31;2002;-72
2022/10/18 00:03:10;;;;;;;5.37;3.13;;;;;;;10.37;66.34;101261.47;308035;31;2411;-72
2022/10/18 00:03:21;;;;;;;4.65;2.83;;;;;;;10.39;66.24;101254.44;308098;31;3446;-72
2022/10/18 00:03:32;;;;;;;4.30;2.60;;;;;;;10.40;66.43;101265.78;306265;32;1300;-72
2022/10/18 00:03:42;;;;;;;4.07;2.25;;;;;;;10.39;66.40;101256.19;302105;32;1326;-72
2022/10/18 00:03:53;;;;;;;4.35;2.55;;;;;;;10.39;66.14;101259.69;302719;32;4503;-72
2022/10/18 00:04:03;;;;;;;4.40;2.77;;;;;;;10.38;66.38;101257.09;304553;32;4835;-73
2022/10/18 00:04:14;;;;;;;4.15;2.55;;;;;;;10.39;66.37;101261.44;302108;32;1216;-73
2022/10/18 00:04:24;;;;;;;4.57;2.87;;;;;;;10.41;66.12;101257.00;300983;32;4379;-72
2022/10/18 00:04:35;;;;;;;4.78;2.95;;;;;;;10.40;66.29;101256.16;300620;32;4646;-72
2022/10/18 00:04:45;;;;;;;4.63;3.00;;;;;;;10.40;66.62;101265.78;303149;32;885;-72
2022/10/18 00:04:55;;;;;;;4.40;2.65;;;;;;;10.38;66.42;101257.94;305043;32;3544;-72
2022/10/18 00:05:06;;;;;;;9.50;3.70;;;;;;;10.35;66.81;101257.13;304536;32;3085;-72
2022/10/18 00:05:17;;;;;;;9.65;3.72;;;;;;;10.34;66.76;101256.25;304126;32;1366;-72
2022/10/18 00:05:27;;;;;;;8.80;3.95;;;;;;;10.34;66.55;101261.50;298699;32;2177;-72
2022/10/18 00:05:38;;;;;;;4.50;2.80;;;;;;;10.31;66.81;101251.94;302125;32;4889;-72
2022/10/18 00:05:48;;;;;;;4.72;3.08;;;;;;;10.33;66.84;101254.53;302021;32;5651;-72
2022/10/18 00:05:58;;;;;;;4.37;2.57;;;;;;;10.32;66.63;101256.28;300218;32;2974;-72
2022/10/18 00:06:09;;;;;;;4.93;2.80;;;;;;;10.32;66.83;101261.53;298038;32;5989;-72
2022/10/18 00:06:19;;;;;;;5.30;2.87;;;;;;;10.32;66.49;101258.91;295915;33;6122;-73
2022/10/18 00:06:30;;;;;;;5.32;3.22;;;;;;;10.32;66.95;101258.91;296032;33;1221;-73
2022/10/18 00:06:40;;;;;;;5.10;3.20;;;;;;;10.32;67.03;101261.53;297687;33;6188;-73
2022/10/18 00:06:51;;;;;;;4.63;2.78;;;;;;;10.31;66.59;101254.56;295201;33;6181;-73
2022/10/18 00:07:01;;;;;;;4.23;2.17;;;;;;;10.30;66.75;101255.44;292117;33;1490;-73
2022/10/18 00:07:11;;;;;;;4.13;2.13;;;;;;;10.28;67.03;101257.22;293111;33;4701;-73
2022/10/18 00:07:22;;;;;;;4.07;2.20;;;;;;;10.31;66.98;101256.31;293483;33;4804;-73
2022/10/18 00:07:32;;;;;;;4.13;2.13;;;;;;;10.30;67.14;101252.81;291918;33;5326;-73
2022/10/18 00:07:43;;;;;;;4.00;2.10;;;;;;;10.35;67.04;101257.13;293037;33;2162;-72
2022/10/18 00:07:53;;;;;;;4.20;2.43;;;;;;;10.36;67.15;101257.13;291592;33;6670;-72
2022/10/18 00:08:03;;;;;;;4.30;2.60;;;;;;;10.37;66.96;101263.22;290244;33;7688;-72
2022/10/18 00:08:15;;;;;;;4.73;2.83;;;;;;;10.38;66.67;101259.72;290112;34;1227;-72
2022/10/18 00:08:25;;;;;;;4.85;2.55;;;;;;;10.37;66.62;101256.22;286372;34;8119;-73
2022/10/18 00:08:36;;;;;;;4.80;2.60;;;;;;;10.38;67.04;101263.19;284864;34;8384;-73
2022/10/18 00:08:47;;;;;;;4.68;2.75;;;;;;;10.38;66.83;101259.72;284551;34;953;-73
2022/10/18 00:08:57;;;;;;;5.50;3.53;;;;;;;10.39;66.56;101259.69;276951;35;883;-72
2022/10/18 00:09:08;;;;;;;5.28;3.25;;;;;;;10.40;66.69;101260.56;279870;34;9007;-72
2022/10/18 00:09:18;;;;;;;4.43;2.57;;;;;;;10.38;66.67;101255.34;280993;35;6596;-72
2022/10/18 00:09:29;;;;;;;4.13;2.28;;;;;;;10.38;66.70;101257.94;276899;35;1936;-72
2022/10/18 00:11:39;;;;;;;5.65;3.23;;;;;;;10.35;66.76;101260.63;2497697;27;20325;-73
2022/10/18 00:11:50;;;;;;;4.60;2.50;;;;;;;10.32;67.00;101258.91;352979;28;978;-73
2022/10/18 00:12:00;;;;;;;4.78;3.22;;;;;;;10.31;66.82;101257.16;348916;28;1421;-73
2022/10/18 00:12:11;;;;;;;4.73;3.13;;;;;;;10.31;67.21;101254.56;348289;28;2144;-73
2022/10/18 00:12:21;;;;;;;5.55;3.83;;;;;;;10.30;66.98;101260.66;350052;28;2182;-73
2022/10/18 00:12:35;;;;;;;5.40;3.40;;;;;;;10.26;66.95;101256.38;348974;28;889;-73
2022/10/18 00:12:45;;;;;;;6.47;3.88;;;;;;;10.27;67.19;101257.22;349086;28;2056;-73
2022/10/18 00:12:55;;;;;;;5.67;3.27;;;;;;;10.25;67.22;101256.38;349847;28;1658;-72
2022/10/18 00:13:06;;;;;;;6.22;3.90;;;;;;;10.26;67.46;101258.13;350100;28;1260;-72
2022/10/18 00:13:16;;;;;;;5.70;3.67;;;;;;;10.26;67.11;101258.97;349817;28;1280;-73
2022/10/18 00:13:27;;;;;;;5.60;3.30;;;;;;;10.28;67.10;101251.97;350311;28;1313;-73
2022/10/18 00:13:37;;;;;;;5.07;2.90;;;;;;;10.28;67.32;101257.22;351540;28;1391;-72
2022/10/18 00:13:47;;;;;;;4.72;2.78;;;;;;;10.28;67.23;101259.81;350193;28;1105;-72
2022/10/18 00:13:58;;;;;;;4.73;2.83;;;;;;;10.30;67.37;101263.28;350318;28;1031;-72
2022/10/18 00:14:08;;;;;;;6.10;3.13;;;;;;;10.32;66.96;101253.66;350355;28;917;-72
2022/10/18 00:14:19;;;;;;;6.27;3.33;;;;;;;10.31;67.14;101257.16;348819;28;1302;-73
2022/10/18 00:14:29;;;;;;;6.13;3.47;;;;;;;10.30;67.01;101260.66;347590;28;884;-73
2022/10/18 00:14:40;;;;;;;4.57;3.10;;;;;;;10.29;67.08;101255.47;350128;28;1917;-74
2022/10/18 00:14:50;;;;;;;4.45;3.03;;;;;;;10.29;67.38;101261.56;348058;28;1154;-73
2022/10/18 00:15:01;;;;;;;4.23;2.70;;;;;;;10.29;67.29;101258.94;345894;28;4348;-73
2022/10/18 00:15:11;;;;;;;4.60;2.97;;;;;;;10.30;67.36;101254.56;347490;28;1105;-73
2022/10/18 00:15:22;;;;;;;4.77;2.77;;;;;;;10.31;67.14;101254.56;347406;28;905;-73
2022/10/18 00:15:32;;;;;;;7.68;3.60;;;;;;;10.31;67.38;101257.16;347305;28;1427;-74
2022/10/18 00:15:56;;;;;;;7.40;3.40;;;;;;;10.29;67.27;101253.72;348940;28;978;-73
2022/10/18 00:16:11;;;;;;;4.40;2.70;;;;;;;10.28;67.01;101262.44;347447;28;1054;-73
2022/10/18 00:16:22;;;;;;;5.32;3.24;;;;;;;10.29;66.95;101258.06;347315;28;1899;-73
2022/10/18 00:16:32;;;;;;;5.00;2.77;;;;;;;10.26;67.14;101248.50;348912;28;1196;-73
2022/10/18 00:16:42;;;;;;;4.80;2.65;;;;;;;10.26;67.01;101248.50;346152;28;1224;-73
2022/10/18 00:16:53;;;;;;;4.07;2.23;;;;;;;10.22;67.48;101252.06;344728;28;1170;-73
2022/10/18 00:17:03;;;;;;;4.15;2.40;;;;;;;10.22;67.42;101252.06;343864;28;1249;-73
2022/10/18 00:17:13;;;;;;;4.30;2.60;;;;;;;10.21;67.34;101249.47;342304;28;1223;-73
2022/10/18 00:17:24;;;;;;;4.60;2.97;;;;;;;10.21;67.49;101255.56;347467;28;1269;-73
2022/10/18 00:17:35;;;;;;;4.88;2.97;;;;;;;10.23;67.26;101253.78;343510;28;2253;-73
2022/10/18 00:17:45;;;;;;;5.18;3.05;;;;;;;10.23;67.25;101248.56;343163;28;1182;-73
2022/10/18 00:17:56;;;;;;;4.93;2.90;;;;;;;10.23;67.30;101247.69;342964;28;1590;-73
2022/10/18 00:18:06;;;;;;;4.20;2.57;;;;;;;10.23;67.25;101245.94;344362;28;1217;-73
2022/10/18 00:18:17;;;;;;;4.40;2.63;;;;;;;10.23;67.26;101245.94;342709;28;1264;-73
2022/10/18 00:18:27;;;;;;;4.30;2.30;;;;;;;10.22;66.75;101251.19;339572;29;1209;-73
2022/10/18 00:18:38;;;;;;;4.53;2.38;;;;;;;10.20;67.21;101242.50;338128;29;1229;-73
2022/10/18 00:18:48;;;;;;;4.20;2.17;;;;;;;10.20;67.21;101243.34;339419;29;1065;-73
2022/10/18 00:18:58;;;;;;;3.97;2.10;;;;;;;10.20;67.03;101247.72;339439;29;936;-73
2022/10/18 00:19:09;;;;;;;4.80;2.70;;;;;;;10.20;67.39;101248.59;338299;29;815;-73
2022/10/18 00:19:19;;;;;;;4.85;2.67;;;;;;;10.22;66.96;101251.19;336753;29;993;-73
2022/10/18 00:19:30;;;;;;;5.17;2.93;;;;;;;10.25;67.00;101240.69;337249;29;1313;-74
2022/10/18 00:19:40;;;;;;;4.70;2.70;;;;;;;10.24;67.03;101245.06;340103;29;1997;-74
2022/10/18 00:19:50;;;;;;;4.22;2.45;;;;;;;10.23;67.11;101243.31;336846;29;1457;-74
2022/10/18 00:20:01;;;;;;;4.10;2.20;;;;;;;10.22;66.98;101246.81;339299;28;1497;-74
2022/10/18 00:20:11;;;;;;;3.80;2.00;;;;;;;10.21;66.97;101239.84;338076;29;1246;-73
2022/10/18 00:20:22;;;;;;;4.17;2.37;;;;;;;10.19;66.96;101246.84;337980;29;1556;-73
2022/10/18 00:20:32;;;;;;;4.13;2.45;;;;;;;10.19;67.17;101244.25;340466;28;1970;-73
2022/10/18 00:20:42;;;;;;;4.07;2.37;;;;;;;10.19;67.13;101246.84;339532;29;1476;-73
2022/10/18 00:21:21;;;;;;;3.95;2.10;;;;;;;10.20;66.86;101248.59;336773;29;1590;-73
2022/10/18 00:21:31;;;;;;;4.65;2.95;;;;;;;10.18;66.79;101242.47;332747;29;1511;-73
2022/10/18 00:21:42;;;;;;;4.30;2.70;;;;;;;10.18;66.93;101245.09;329236;30;1374;-73
2022/10/18 00:21:52;;;;;;;4.22;2.45;;;;;;;10.19;67.38;101248.56;330172;29;1900;-73
2022/10/18 00:22:03;;;;;;;4.47;2.87;;;;;;;10.17;67.13;101243.38;330810;29;2053;-73
2022/10/18 00:22:13;;;;;;;6.40;3.20;;;;;;;10.18;67.14;101241.59;330039;29;2039;-73
2022/10/18 00:22:24;;;;;;;6.57;3.33;;;;;;;10.18;66.82;101247.72;325893;30;2008;-74
2022/10/18 00:22:36;;;;;;;6.85;3.05;;;;;;;10.16;67.09;101244.25;324513;30;2222;-74
2022/10/18 00:22:46;;;;;;;6.28;3.30;;;;;;;10.15;67.01;101244.28;325573;30;1365;-73
2022/10/18 00:22:56;;;;;;;6.17;3.53;;;;;;;10.13;67.25;101241.66;326882;30;805;-73
2022/10/18 00:23:07;;;;;;;5.88;3.40;;;;;;;10.12;67.26;101250.41;329398;29;1936;-73
2022/10/18 00:23:17;;;;;;;4.07;2.47;;;;;;;10.10;67.24;101244.31;328597;30;1400;-73
2022/10/18 00:23:29;;;;;;;4.17;2.37;;;;;;;10.11;67.35;101243.44;328059;30;1322;-73
2022/10/18 00:23:39;;;;;;;4.25;2.45;;;;;;;10.11;67.48;101243.44;325670;30;828;-73
2022/10/18 00:23:50;;;;;;;4.72;2.90;;;;;;;10.14;67.38;101247.75;322814;30;2196;-73
2022/10/18 00:24:00;;;;;;;4.20;2.70;;;;;;;10.13;67.45;101246.03;322391;30;3510;-73
2022/10/18 00:24:11;;;;;;;4.70;3.00;;;;;;;10.13;67.06;101241.66;321824;30;2262;-73
2022/10/18 00:24:21;;;;;;;5.25;2.95;;;;;;;10.13;67.46;101241.66;320435;30;2441;-73
2022/10/18 00:24:32;;;;;;;5.37;3.13;;;;;;;10.14;67.35;101247.75;318457;30;2832;-73
2022/10/18 00:24:42;;;;;;;4.78;2.78;;;;;;;10.12;67.15;101245.16;318472;31;1219;-73
2022/10/18 00:24:53;;;;;;;4.50;2.97;;;;;;;10.13;67.48;101246.91;318191;30;2439;-73
2022/10/18 00:25:04;;;;;;;4.47;2.88;;;;;;;10.09;67.45;101239.97;317929;30;1574;-73
2022/10/18 00:25:14;;;;;;;4.22;2.63;;;;;;;10.08;67.35;101238.25;319731;30;1274;-73
2022/10/18 00:25:24;;;;;;;4.17;2.10;;;;;;;10.10;67.60;101246.06;318457;31;1200;-73
2022/10/18 00:25:35;;;;;;;4.63;2.38;;;;;;;10.09;67.47;101239.97;314326;31;2063;-73
2022/10/18 00:25:45;;;;;;;4.33;2.27;;;;;;;10.05;67.55;101238.28;312713;31;2859;-73
2022/10/18 00:26:00;;;;;;;3.90;2.07;;;;;;;10.08;67.45;101240.84;314090;31;930;-73
2022/10/18 00:26:14;;;;;;;3.70;1.73;;;;;;;10.12;67.30;101245.16;313582;31;2074;-73
2022/10/18 00:26:26;;;;;;;4.13;2.25;;;;;;;10.13;67.49;101246.91;311738;31;1619;-73
2022/10/18 00:26:36;;;;;;;4.22;2.40;;;;;;;10.13;67.48;101240.81;308225;31;3373;-73
2022/10/18 00:26:47;;;;;;;5.47;2.80;;;;;;;10.13;67.50;101244.28;306485;31;3607;-73
2022/10/18 00:26:57;;;;;;;5.30;2.70;;;;;;;10.13;67.04;101240.81;308486;32;1223;-73
2022/10/18 00:27:07;;;;;;;4.43;2.35;;;;;;;10.12;67.08;101234.69;311485;31;2857;-73
2022/10/18 00:27:18;;;;;;;3.97;2.20;;;;;;;10.12;67.51;101239.94;310199;31;2055;-73
2022/10/18 00:27:29;;;;;;;3.90;2.15;;;;;;;10.12;66.82;101239.94;307127;31;2312;-73
2022/10/18 00:27:39;;;;;;;4.10;2.35;;;;;;;10.14;67.29;101242.53;309476;31;1261;-73
2022/10/18 00:27:49;;;;;;;4.50;2.90;;;;;;;10.12;66.83;101239.94;307638;32;2958;-73
2022/10/18 00:28:00;;;;;;;5.10;3.03;;;;;;;10.14;66.78;101238.16;303733;32;3603;-73
2022/10/18 00:28:10;;;;;;;5.00;2.83;;;;;;;10.15;66.63;101239.91;305237;32;2421;-73
2022/10/18 00:28:20;;;;;;;4.07;2.07;;;;;;;10.14;66.92;101240.78;308190;31;3962;-73
2022/10/18 00:28:32;;;;;;;3.97;2.05;;;;;;;10.14;66.99;101240.78;308137;31;4512;-73
2022/10/18 00:28:42;;;;;;;3.90;2.17;;;;;;;10.15;66.83;101239.91;308500;32;979;-73
2022/10/18 00:29:00;;;;;;;4.03;2.08;;;;;;;10.12;66.66;101239.94;308861;31;4622;-73
2022/10/18 00:29:12;;;;;;;3.95;1.70;;;;;;;10.12;67.22;101233.84;306351;32;1044;-73
2022/10/18 00:29:23;;;;;;;5.57;3.60;;;;;;;10.11;66.98;101229.50;306386;32;913;-73
2022/10/18 00:29:33;;;;;;;5.22;3.70;;;;;;;10.08;66.97;101243.47;304725;32;2859;-73
2022/10/18 00:29:44;;;;;;;5.10;3.70;;;;;;;10.09;66.97;101237.34;300207;32;3369;-73
2022/10/18 00:29:54;;;;;;;4.10;2.10;;;;;;;10.08;67.22;101227.78;296438;33;1583;-73
2022/10/18 00:30:05;;;;;;;3.97;2.03;;;;;;;10.07;66.78;101231.28;300537;32;4313;-73
2022/10/18 00:30:15;;;;;;;3.92;2.00;;;;;;;10.07;66.76;101236.50;301448;32;4993;-73
2022/10/18 00:30:26;;;;;;;4.10;2.10;;;;;;;10.10;66.79;101236.47;302082;32;1030;-73
2022/10/18 00:30:36;;;;;;;4.50;2.17;;;;;;;10.11;66.71;101232.09;302173;32;5496;-73
2022/10/18 00:30:47;;;;;;;4.80;2.97;;;;;;;10.15;66.75;101237.28;299754;32;6228;-73
2022/10/18 00:30:57;;;;;;;4.70;3.22;;;;;;;10.14;66.61;101232.94;298037;33;1334;-73
2022/10/18 00:31:12;;;;;;;4.90;3.40;;;;;;;10.13;66.62;101233.81;296956;33;6403;-73
2022/10/18 00:31:33;;;;;;;4.30;2.50;;;;;;;10.14;66.45;101239.91;296076;33;5994;-73
2022/10/18 00:31:43;;;;;;;4.28;2.20;;;;;;;10.13;66.60;101230.34;289348;33;4893;-73
2022/10/18 00:31:54;;;;;;;4.80;2.53;;;;;;;10.13;66.56;101236.44;290127;34;2056;-73
2022/10/18 00:32:04;;;;;;;4.45;2.45;;;;;;;10.15;66.75;101234.66;289947;33;5220;-73
2022/10/18 00:32:15;;;;;;;4.40;2.50;;;;;;;10.14;66.41;101235.56;291156;33;6288;-73
2022/10/18 00:32:25;;;;;;;4.32;2.55;;;;;;;10.13;66.46;101230.34;293132;33;3884;-73
2022/10/18 00:32:37;;;;;;;4.50;3.07;;;;;;;10.12;66.80;101233.84;285615;34;7718;-73
2022/10/18 00:32:47;;;;;;;4.43;3.10;;;;;;;10.10;66.62;101231.25;285779;34;7644;-72
2022/10/18 00:32:58;;;;;;;9.57;3.50;;;;;;;10.10;66.78;101231.25;287004;34;1224;-72
2022/10/18 00:33:08;;;;;;;9.68;3.22;;;;;;;10.10;66.45;101231.25;283575;34;1246;-74
2022/10/18 00:33:18;;;;;;;9.50;3.10;;;;;;;10.12;66.88;101237.31;280798;34;7379;-73
2022/10/18 00:33:29;;;;;;;4.45;2.95;;;;;;;10.11;66.50;101232.97;279349;34;8730;-74
2022/10/18 00:33:39;;;;;;;4.57;3.17;;;;;;;10.10;66.82;101228.63;283519;34;1272;-73
2022/10/18 00:33:53;;;;;;;4.88;2.95;;;;;;;10.10;66.77;101231.25;279458;34;7312;-72
2022/10/18 00:34:10;;;;;;;4.55;2.28;;;;;;;10.05;66.63;101230.44;277423;35;6158;-73
2022/10/18 00:34:21;;;;;;;4.70;2.80;;;;;;;10.07;66.78;101220.81;274546;35;7844;-74
2022/10/18 00:34:31;;;;;;;4.35;2.50;;;;;;;10.08;66.56;101227.78;272258;35;7893;-74
2022/10/18 00:34:42;;;;;;;5.17;3.27;;;;;;;10.07;66.76;101231.28;273888;36;1322;-74
2022/10/18 00:36:35;;;;;;;4.96;2.85;;;;;;;10.00;66.73;101224.38;2501185;27;20497;-73
2022/10/18 00:36:46;;;;;;;4.28;2.08;;;;;;;10.00;66.60;101229.63;350885;28;1900;-72
2022/10/18 00:36:56;;;;;;;4.90;2.80;;;;;;;9.99;66.93;101225.28;347487;28;1189;-72
2022/10/18 00:37:07;;;;;;;7.17;5.07;;;;;;;9.98;66.90;101227.03;347514;28;1335;-73
2022/10/18 00:37:17;;;;;;;7.15;5.15;;;;;;;10.01;66.95;101220.91;347563;28;1154;-73
2022/10/18 00:37:27;;;;;;;6.70;4.50;;;;;;;10.02;66.71;101225.25;347176;28;1660;-73
2022/10/18 00:37:38;;;;;;;4.17;2.27;;;;;;;10.00;66.81;101227.00;347463;28;1315;-73
2022/10/18 00:37:48;;;;;;;3.90;2.03;;;;;;;10.00;66.96;101221.78;347514;28;1130;-73
2022/10/18 00:37:59;;;;;;;3.63;2.15;;;;;;;9.97;66.79;101227.03;347418;28;1212;-72
2022/10/18 00:38:09;;;;;;;4.13;2.37;;;;;;;9.96;66.99;101222.72;347421;28;1492;-72
2022/10/18 00:38:19;;;;;;;4.20;2.45;;;;;;;9.95;67.20;101231.47;347506;28;984;-72
2022/10/18 00:38:30;;;;;;;4.67;2.67;;;;;;;9.94;66.85;101221.88;347405;28;1322;-74
2022/10/18 00:38:40;;;;;;;4.85;2.70;;;;;;;9.94;67.06;101227.13;347770;28;1259;-74
2022/10/18 00:38:51;;;;;;;5.20;2.73;;;;;;;9.95;67.35;101227.09;351578;28;1312;-74
2022/10/18 00:39:03;;;;;;;5.03;2.55;;;;;;;9.94;67.04;101222.75;347848;28;947;-73
2022/10/18 00:39:15;;;;;;;4.20;2.28;;;;;;;9.92;67.21;101221.91;346845;28;1668;-73
2022/10/18 00:39:26;;;;;;;4.22;2.30;;;;;;;9.92;67.19;101221.03;350078;28;1015;-73
2022/10/18 00:39:36;;;;;;;4.40;2.17;;;;;;;9.95;67.17;101228.84;348988;28;881;-73
2022/10/18 00:39:47;;;;;;;4.63;2.35;;;;;;;9.93;67.06;101222.78;350918;28;1434;-73
2022/10/18 00:39:57;;;;;;;4.00;2.20;;;;;;;9.93;67.08;101226.25;351628;28;864;-73
2022/10/18 00:40:08;;;;;;;4.10;2.37;;;;;;;9.92;67.31;101224.50;350346;28;830;-73
2022/10/18 00:40:18;;;;;;;4.13;2.35;;;;;;;9.90;67.20;101228.03;348816;28;906;-73
2022/10/18 00:40:29;;;;;;;3.97;2.20;;;;;;;9.89;67.69;101224.56;344539;28;1219;-73
2022/10/18 00:40:39;;;;;;;4.30;2.30;;;;;;;9.88;67.17;101225.44;346148;28;896;-73
2022/10/18 00:40:49;;;;;;;4.27;2.30;;;;;;;9.88;67.71;101235.91;346250;28;865;-73
2022/10/18 00:41:00;;;;;;;5.47;3.77;;;;;;;9.88;67.40;101240.25;347076;28;1967;-74
2022/10/18 00:41:13;;;;;;;4.90;3.50;;;;;;;9.92;67.33;101228.88;346355;28;1039;-74
2022/10/18 00:41:25;;;;;;;5.60;3.65;;;;;;;9.93;67.34;101230.63;344796;28;1098;-74
2022/10/18 00:41:36;;;;;;;4.85;2.80;;;;;;;9.93;67.31;101228.88;344271;28;3721;-73
2022/10/18 00:41:47;;;;;;;4.55;2.90;;;;;;;9.92;67.00;101231.50;344729;28;1435;-73
2022/10/18 00:41:58;;;;;;;4.17;2.40;;;;;;;9.92;67.08;101226.25;343959;28;946;-74
2022/10/18 00:42:17;;;;;;;3.97;2.05;;;;;;;9.94;67.60;101234.97;344763;28;1394;-74
2022/10/18 00:42:31;;;;;;;5.00;3.75;;;;;;;9.94;67.26;101240.19;341083;28;1227;-74
2022/10/18 00:42:41;;;;;;;5.15;3.55;;;;;;;9.93;66.98;101228.88;340557;28;1533;-73
2022/10/18 00:42:51;;;;;;;5.88;4.25;;;;;;;9.94;67.01;101240.19;340830;29;861;-73
2022/10/18 00:43:02;;;;;;;5.37;3.97;;;;;;;9.95;67.19;101231.47;341977;28;1108;-73
2022/10/18 00:43:14;;;;;;;5.40;4.00;;;;;;;9.96;67.01;101227.97;342487;28;1289;-74
2022/10/18 00:43:24;;;;;;;4.10;2.28;;;;;;;9.94;67.08;101232.34;343321;28;1388;-74
2022/10/18 00:43:53;;;;;;;4.30;2.57;;;;;;;9.94;67.44;101232.34;343452;28;801;-74
2022/10/18 00:44:10;;;;;;;4.10;2.25;;;;;;;9.95;67.39;101226.22;344608;28;1258;-73
2022/10/18 00:44:23;;;;;;;4.22;2.47;;;;;;;9.94;67.16;101237.56;340823;29;1959;-73
2022/10/18 00:44:33;;;;;;;3.85;2.17;;;;;;;9.94;67.29;101240.19;342569;28;2117;-74
2022/10/18 00:44:44;;;;;;;3.95;2.35;;;;;;;9.93;67.41;101241.06;345551;28;1405;-73
2022/10/18 00:45:04;;;;;;;4.30;2.73;;;;;;;9.93;67.26;101228.00;344738;28;1249;-73
2022/10/18 00:45:21;;;;;;;5.14;3.62;;;;;;;9.94;67.45;101227.13;338131;29;1746;-73
2022/10/18 00:45:32;;;;;;;5.80;4.28;;;;;;;9.93;67.08;101225.38;334575;29;1924;-73
2022/10/18 00:45:42;;;;;;;5.90;4.18;;;;;;;9.94;67.17;101233.22;333430;29;895;-73
2022/10/18 00:45:53;;;;;;;4.43;2.70;;;;;;;9.93;67.13;101233.22;335849;29;2367;-73
2022/10/18 00:46:03;;;;;;;4.15;2.53;;;;;;;9.92;66.97;101231.50;337044;29;934;-74
2022/10/18 00:46:14;;;;;;;3.50;2.03;;;;;;;9.92;66.77;101226.25;336099;29;887;-73
2022/10/18 00:46:26;;;;;;;4.20;2.58;;;;;;;9.94;67.06;101229.72;335794;29;2635;-73
2022/10/18 00:46:41;;;;;;;5.50;3.33;;;;;;;9.93;67.58;101228.00;330961;29;2117;-73
2022/10/18 00:46:53;;;;;;;6.10;3.97;;;;;;;9.92;67.38;101228.88;326518;30;1426;-73
2022/10/18 00:47:06;;;;;;;5.47;3.60;;;;;;;9.93;67.08;101230.63;326559;30;1887;-73
2022/10/18 00:47:17;;;;;;;4.32;2.60;;;;;;;9.91;67.30;101232.38;325162;30;2207;-74
2022/10/18 00:47:28;;;;;;;4.97;3.00;;;;;;;9.89;66.75;101227.16;322043;30;2170;-73
2022/10/18 00:47:39;;;;;;;4.90;3.15;;;;;;;9.92;67.14;101228.88;323292;30;1497;-73
2022/10/18 00:47:53;;;;;;;4.70;3.23;;;;;;;9.92;66.83;101226.25;322678;30;2114;-72
2022/10/18 00:48:04;;;;;;;5.82;4.05;;;;;;;9.92;66.82;101231.50;324719;30;2173;-73
2022/10/18 00:48:14;;;;;;;6.22;4.15;;;;;;;9.91;67.12;101225.41;327394;30;1242;-74
2022/10/18 00:48:25;;;;;;;6.00;4.03;;;;;;;9.90;67.19;101236.75;325198;30;2237;-74
2022/10/18 00:48:35;;;;;;;5.10;3.27;;;;;;;9.92;67.01;101228.88;324143;30;1364;-73
2022/10/18 00:48:45;;;;;;;5.40;3.45;;;;;;;9.92;67.05;101236.72;324799;30;1957;-73
2022/10/18 00:48:58;;;;;;;7.50;4.50;;;;;;;9.91;66.77;101225.41;325113;30;2259;-73
2022/10/18 00:49:12;;;;;;;6.53;4.05;;;;;;;9.92;67.06;101228.88;325590;30;1426;-74
2022/10/18 00:49:29;;;;;;;5.75;3.33;;;;;;;9.94;67.11;101230.59;320837;30;1320;-73
2022/10/18 00:49:48;;;;;;;4.53;2.47;;;;;;;9.95;66.98;101226.22;325629;30;1498;-73
2022/10/18 00:50:00;;;;;;;4.82;3.17;;;;;;;9.94;66.64;101227.13;323376;30;1313;-73
2022/10/18 00:50:10;;;;;;;5.55;3.75;;;;;;;9.97;66.79;101229.66;319425;30;1971;-72
2022/10/18 00:50:21;;;;;;;4.83;3.50;;;;;;;9.96;67.09;101226.19;320763;30;1220;-73
2022/10/18 00:50:32;;;;;;;4.80;3.33;;;;;;;9.95;66.74;101224.47;321156;30;1914;-73
2022/10/18 00:50:42;;;;;;;4.03;2.85;;;;;;;9.97;66.90;101224.44;316405;30;3611;-73
2022/10/18 00:50:53;;;;;;;4.87;3.30;;;;;;;9.96;66.60;101225.34;315292;31;2573;-73
2022/10/18 00:51:03;;;;;;;4.57;3.00;;;;;;;9.94;66.99;101232.34;317765;31;2984;-73
2022/10/18 00:51:14;;;;;;;4.67;3.03;;;;;;;9.91;67.52;101229.75;315073;30;3366;-73
2022/10/18 00:51:28;;;;;;;4.07;2.67;;;;;;;9.91;67.12;101235.00;316315;31;3979;-73
2022/10/18 00:52:04;;;;;;;4.65;2.90;;;;;;;9.91;67.59;101225.41;317904;31;948;-73
2022/10/18 00:52:38;;;;;;;4.57;2.88;;;;;;;9.90;67.30;101228.91;308459;31;1650;-73
2022/10/18 00:52:52;;;;;;;4.57;2.97;;;;;;;9.89;67.61;101228.91;303477;32;2728;-73
2022/10/18 00:53:05;;;;;;;5.03;3.35;;;;;;;9.87;67.83;101234.16;304209;32;3327;-73
2022/10/18 00:53:17;;;;;;;4.22;2.95;;;;;;;9.86;67.39;101234.19;299798;32;3954;-73
2022/10/18 00:53:28;;;;;;;4.40;2.75;;;;;;;9.85;67.53;101232.44;298689;32;4378;-73
2022/10/18 00:53:38;;;;;;;5.00;3.53;;;;;;;9.85;67.78;101235.06;297666;33;1904;-73
2022/10/18 00:53:48;;;;;;;5.70;3.90;;;;;;;9.84;67.73;101233.34;293538;33;4737;-73
2022/10/18 00:53:59;;;;;;;5.63;4.17;;;;;;;9.83;67.80;101231.59;293691;33;4924;-73
2022/10/18 00:54:10;;;;;;;4.75;3.35;;;;;;;9.84;68.04;101238.56;293842;33;1760;-74
2022/10/18 00:54:20;;;;;;;5.13;3.60;;;;;;;9.84;67.66;101228.09;288277;34;1481;-74
2022/10/18 00:54:32;;;;;;;5.40;3.65;;;;;;;9.82;68.01;101230.75;289178;34;2723;-74
2022/10/18 00:54:44;;;;;;;5.10;3.38;;;;;;;9.81;67.87;101238.59;287016;34;3444;-73
2022/10/18 00:54:54;;;;;;;4.53;3.28;;;;;;;9.82;67.92;101235.97;284805;34;4124;-73
2022/10/18 00:55:05;;;;;;;5.18;4.05;;;;;;;9.82;67.89;101235.97;286380;34;952;-73
2022/10/18 00:55:16;;;;;;;5.20;3.97;;;;;;;9.81;68.08;101229.00;287174;33;5207;-73
2022/10/18 00:55:26;;;;;;;5.27;3.77;;;;;;;9.81;67.74;101231.63;286530;34;5804;-73
2022/10/18 00:55:37;;;;;;;17.55;4.50;;;;;;;9.82;67.85;101235.09;288274;34;1176;-73
2022/10/18 00:55:47;;;;;;;17.70;4.80;;;;;;;9.82;68.15;101232.47;283050;34;6602;-74
2022/10/18 00:55:57;;;;;;;17.23;4.45;;;;;;;9.83;67.99;101232.47;281648;34;7085;-73
2022/10/18 00:56:08;;;;;;;4.73;3.10;;;;;;;9.83;68.22;101226.38;283644;34;1372;-73
2022/10/18 00:56:18;;;;;;;5.18;3.40;;;;;;;9.82;68.20;101238.56;283180;34;6961;-73
2022/10/18 00:56:29;;;;;;;5.47;3.67;;;;;;;9.83;68.14;101231.59;280948;34;5981;-73
2022/10/18 00:56:39;;;;;;;5.03;3.33;;;;;;;9.82;68.04;101232.47;280909;35;823;-73
2022/10/18 00:56:49;;;;;;;4.53;3.13;;;;;;;9.80;68.01;101227.28;274768;36;985;-73
2022/10/18 00:57:00;;;;;;;3.93;2.73;;;;;;;9.79;68.24;101230.78;276106;35;4939;-73
2022/10/18 00:57:11;;;;;;;4.50;2.97;;;;;;;9.80;67.85;101232.50;276036;35;5592;-73
2022/10/18 00:57:21;;;;;;;4.22;2.70;;;;;;;9.80;67.90;101232.50;275941;35;2066;-74
2022/10/18 00:57:31;;;;;;;5.10;3.20;;;;;;;9.80;68.07;101231.63;275293;35;8171;-74
2022/10/18 00:57:42;;;;;;;5.30;3.47;;;;;;;9.79;68.05;101229.91;273030;35;8108;-74
2022/10/18 00:57:53;;;;;;;5.07;3.53;;;;;;;9.77;68.08;101231.66;273000;36;1207;-74
2022/10/18 00:58:03;;;;;;;4.22;2.90;;;;;;;9.78;68.33;101230.78;268883;36;9139;-73
2022/10/18 00:58:15;;;;;;;4.40;2.75;;;;;;;9.78;68.09;101230.78;269571;36;9810;-73